EZY67TL LFBO-EGPH
Flight info
| Callsign | EZY67TL |
|---|---|
| Flight time | 2h 7m |
| Altitude | 36000 |
| Route | LACOU DCT CHALA DCT TUPAR UY120 AKIKI UN867 VASUX DCT TNT UN57 POL UN601 RIBEL DCT INPIP |
| Aircraft | A320/M-SDE3FGHIRWY/LB1 |
Departure
| Time | 2026-04-21 19:57 |
|---|---|
| Airport | Toulouse-Blagnac Airport (LFBO) |
Arrival
| Time | 2026-04-21 22:04 |
|---|---|
| Airport | Edinburgh Airport (EGPH) |
| Time | Latitude | Longitude | Altitude | Speed | Heading |
|---|---|---|---|---|---|
| 2026-04-21 19:23 | 43.62912 | 1.37394 | 494 ft | 0 kts | 49° |
| 2026-04-21 19:46 | 43.62897 | 1.37371 | 486 ft | 4 kts | 49° |
| 2026-04-21 19:46 | 43.62879 | 1.37343 | 491 ft | 4 kts | 49° |
| 2026-04-21 19:46 | 43.62862 | 1.37318 | 484 ft | 4 kts | 25° |
| 2026-04-21 19:46 | 43.62840 | 1.37317 | 489 ft | 4 kts | 329° |
| 2026-04-21 19:47 | 43.62822 | 1.37334 | 483 ft | 4 kts | 323° |
| 2026-04-21 19:47 | 43.62816 | 1.37340 | 490 ft | 0 kts | 323° |
| 2026-04-21 19:50 | 43.62852 | 1.37302 | 494 ft | 11 kts | 323° |
| 2026-04-21 19:50 | 43.62897 | 1.37255 | 491 ft | 6 kts | 322° |
| 2026-04-21 19:50 | 43.62907 | 1.37212 | 489 ft | 4 kts | 270° |
| 2026-04-21 19:51 | 43.62885 | 1.37161 | 485 ft | 9 kts | 232° |
| 2026-04-21 19:51 | 43.62839 | 1.37076 | 490 ft | 14 kts | 234° |
| 2026-04-21 19:51 | 43.62857 | 1.36990 | 491 ft | 8 kts | 321° |
| 2026-04-21 19:51 | 43.62914 | 1.36928 | 487 ft | 14 kts | 323° |
| 2026-04-21 19:52 | 43.63009 | 1.36831 | 487 ft | 20 kts | 323° |
| 2026-04-21 19:52 | 43.63118 | 1.36717 | 492 ft | 19 kts | 322° |
| 2026-04-21 19:52 | 43.63216 | 1.36615 | 490 ft | 17 kts | 322° |
| 2026-04-21 19:52 | 43.63303 | 1.36525 | 492 ft | 15 kts | 323° |
| 2026-04-21 19:53 | 43.63379 | 1.36447 | 492 ft | 13 kts | 323° |
| 2026-04-21 19:53 | 43.63445 | 1.36379 | 492 ft | 11 kts | 323° |
| 2026-04-21 19:53 | 43.63502 | 1.36320 | 489 ft | 11 kts | 323° |
| 2026-04-21 19:53 | 43.63582 | 1.36237 | 486 ft | 16 kts | 323° |
| 2026-04-21 19:54 | 43.63663 | 1.36152 | 489 ft | 14 kts | 322° |
| 2026-04-21 19:54 | 43.63733 | 1.36077 | 489 ft | 12 kts | 322° |
| 2026-04-21 19:54 | 43.63795 | 1.36013 | 491 ft | 10 kts | 323° |
| 2026-04-21 19:54 | 43.63824 | 1.35939 | 490 ft | 8 kts | 257° |
| 2026-04-21 19:55 | 43.63791 | 1.35886 | 487 ft | 6 kts | 232° |
| 2026-04-21 19:55 | 43.63785 | 1.35876 | 484 ft | 0 kts | 233° |
| 2026-04-21 19:56 | 43.63770 | 1.35847 | 487 ft | 10 kts | 233° |
| 2026-04-21 19:56 | 43.63718 | 1.35784 | 489 ft | 6 kts | 161° |
| 2026-04-21 19:56 | 43.63680 | 1.35821 | 483 ft | 12 kts | 147° |
| 2026-04-21 19:56 | 43.63447 | 1.36064 | 492 ft | 77 kts | 143° |
| 2026-04-21 19:57 | 43.62868 | 1.36665 | 489 ft | 132 kts | 143° |
| 2026-04-21 19:57 | 43.62021 | 1.37549 | 648 ft | 163 kts | 142° |
| 2026-04-21 19:57 | 43.61115 | 1.38481 | 1309 ft | 163 kts | 141° |
| 2026-04-21 19:57 | 43.60183 | 1.39444 | 1798 ft | 177 kts | 141° |
| 2026-04-21 19:58 | 43.59143 | 1.40532 | 2124 ft | 196 kts | 140° |
| 2026-04-21 19:58 | 43.57995 | 1.41713 | 2478 ft | 218 kts | 144° |
| 2026-04-21 19:58 | 43.56685 | 1.42979 | 2879 ft | 242 kts | 143° |
| 2026-04-21 19:58 | 43.55261 | 1.44394 | 3410 ft | 260 kts | 143° |
| 2026-04-21 19:59 | 43.53774 | 1.45855 | 4234 ft | 266 kts | 148° |
| 2026-04-21 19:59 | 43.52045 | 1.46790 | 5029 ft | 271 kts | 171° |
| 2026-04-21 19:59 | 43.50159 | 1.46791 | 5848 ft | 274 kts | 192° |
| 2026-04-21 19:59 | 43.48384 | 1.45839 | 6675 ft | 275 kts | 213° |
| 2026-04-21 20:00 | 43.46995 | 1.44046 | 7508 ft | 275 kts | 236° |
| 2026-04-21 20:00 | 43.46189 | 1.41666 | 8328 ft | 277 kts | 257° |
| 2026-04-21 20:00 | 43.46090 | 1.39020 | 9129 ft | 281 kts | 278° |
| 2026-04-21 20:00 | 43.46741 | 1.36478 | 9937 ft | 285 kts | 300° |
| 2026-04-21 20:01 | 43.48072 | 1.34440 | 10660 ft | 292 kts | 322° |
| 2026-04-21 20:01 | 43.49926 | 1.33249 | 11383 ft | 299 kts | 346° |
| 2026-04-21 20:01 | 43.52021 | 1.32882 | 11757 ft | 318 kts | 352° |
| 2026-04-21 20:01 | 43.54308 | 1.32597 | 11929 ft | 341 kts | 353° |
| 2026-04-21 20:02 | 43.56698 | 1.32131 | 12342 ft | 350 kts | 341° |
| 2026-04-21 20:02 | 43.58951 | 1.30835 | 12955 ft | 353 kts | 333° |
| 2026-04-21 20:02 | 43.61184 | 1.29383 | 13584 ft | 357 kts | 332° |
| 2026-04-21 20:02 | 43.63428 | 1.27910 | 13802 ft | 357 kts | 332° |
| 2026-04-21 20:03 | 43.65664 | 1.26431 | 13858 ft | 356 kts | 332° |
| 2026-04-21 20:03 | 43.67893 | 1.24951 | 13866 ft | 355 kts | 332° |
| 2026-04-21 20:03 | 43.70127 | 1.23468 | 13867 ft | 355 kts | 332° |
| 2026-04-21 20:03 | 43.72357 | 1.21990 | 13867 ft | 355 kts | 332° |
| 2026-04-21 20:04 | 43.74589 | 1.20516 | 13866 ft | 355 kts | 332° |
| 2026-04-21 20:04 | 43.76823 | 1.19044 | 13866 ft | 355 kts | 332° |
| 2026-04-21 20:04 | 43.79063 | 1.17565 | 14109 ft | 359 kts | 332° |
| 2026-04-21 20:04 | 43.81318 | 1.16072 | 14787 ft | 360 kts | 332° |
| 2026-04-21 20:05 | 43.83584 | 1.14571 | 15426 ft | 363 kts | 332° |
| 2026-04-21 20:05 | 43.85841 | 1.13073 | 16002 ft | 366 kts | 332° |
| 2026-04-21 20:05 | 43.88152 | 1.11537 | 16590 ft | 369 kts | 332° |
| 2026-04-21 20:05 | 43.90478 | 1.09987 | 17174 ft | 372 kts | 332° |
| 2026-04-21 20:06 | 43.92818 | 1.08425 | 17762 ft | 375 kts | 332° |
| 2026-04-21 20:06 | 43.95181 | 1.06850 | 18307 ft | 378 kts | 332° |
| 2026-04-21 20:06 | 43.97565 | 1.05262 | 18796 ft | 381 kts | 332° |
| 2026-04-21 20:06 | 43.99965 | 1.03668 | 19299 ft | 384 kts | 332° |
| 2026-04-21 20:07 | 44.02385 | 1.02057 | 19776 ft | 386 kts | 332° |
| 2026-04-21 20:07 | 44.04817 | 1.00431 | 20299 ft | 388 kts | 332° |
| 2026-04-21 20:07 | 44.07248 | 0.98800 | 20781 ft | 390 kts | 332° |
| 2026-04-21 20:07 | 44.09702 | 0.97156 | 21249 ft | 393 kts | 332° |
| 2026-04-21 20:08 | 44.12174 | 0.95505 | 21722 ft | 395 kts | 332° |
| 2026-04-21 20:08 | 44.14635 | 0.93860 | 22172 ft | 398 kts | 332° |
| 2026-04-21 20:08 | 44.17132 | 0.92188 | 22608 ft | 400 kts | 332° |
| 2026-04-21 20:08 | 44.19648 | 0.90497 | 23044 ft | 403 kts | 332° |
| 2026-04-21 20:09 | 44.22187 | 0.88790 | 23468 ft | 405 kts | 332° |
| 2026-04-21 20:09 | 44.24733 | 0.87077 | 23847 ft | 407 kts | 332° |
| 2026-04-21 20:09 | 44.27290 | 0.85356 | 24237 ft | 409 kts | 332° |
| 2026-04-21 20:09 | 44.29856 | 0.83628 | 24622 ft | 410 kts | 332° |
| 2026-04-21 20:10 | 44.32429 | 0.81891 | 25011 ft | 411 kts | 331° |
| 2026-04-21 20:10 | 44.35009 | 0.80144 | 25373 ft | 413 kts | 331° |
| 2026-04-21 20:10 | 44.37602 | 0.78385 | 25748 ft | 414 kts | 331° |
| 2026-04-21 20:10 | 44.40200 | 0.76627 | 26112 ft | 416 kts | 331° |
| 2026-04-21 20:11 | 44.42813 | 0.74864 | 26452 ft | 417 kts | 331° |
| 2026-04-21 20:11 | 44.45436 | 0.73092 | 26800 ft | 419 kts | 331° |
| 2026-04-21 20:11 | 44.48059 | 0.71311 | 27147 ft | 421 kts | 331° |
| 2026-04-21 20:11 | 44.50696 | 0.69513 | 27501 ft | 422 kts | 331° |
| 2026-04-21 20:12 | 44.53312 | 0.67730 | 27850 ft | 424 kts | 331° |
| 2026-04-21 20:12 | 44.55961 | 0.65924 | 28184 ft | 425 kts | 331° |
| 2026-04-21 20:12 | 44.57762 | 0.64696 | 28408 ft | 426 kts | 331° |
| 2026-04-21 20:12 | 44.61301 | 0.62287 | 28830 ft | 428 kts | 331° |
| 2026-04-21 20:13 | 44.63985 | 0.60454 | 29130 ft | 430 kts | 331° |
| 2026-04-21 20:13 | 44.66678 | 0.58612 | 29427 ft | 431 kts | 331° |
| 2026-04-21 20:13 | 44.69381 | 0.56761 | 29731 ft | 433 kts | 331° |
| 2026-04-21 20:13 | 44.72091 | 0.54903 | 30008 ft | 434 kts | 331° |
| 2026-04-21 20:14 | 44.74812 | 0.53036 | 30246 ft | 436 kts | 331° |
| 2026-04-21 20:14 | 44.77534 | 0.51169 | 30498 ft | 436 kts | 331° |
| 2026-04-21 20:14 | 44.80260 | 0.49296 | 30858 ft | 435 kts | 331° |
| 2026-04-21 20:14 | 44.82970 | 0.47428 | 31187 ft | 433 kts | 330° |
| 2026-04-21 20:15 | 44.85674 | 0.45562 | 31539 ft | 432 kts | 330° |
| 2026-04-21 20:15 | 44.88369 | 0.43701 | 31829 ft | 431 kts | 330° |
| 2026-04-21 20:15 | 44.91060 | 0.41839 | 32111 ft | 430 kts | 330° |
| 2026-04-21 20:15 | 44.93743 | 0.39985 | 32471 ft | 428 kts | 330° |
| 2026-04-21 20:16 | 44.96420 | 0.38137 | 32790 ft | 427 kts | 330° |
| 2026-04-21 20:16 | 44.99095 | 0.36292 | 33079 ft | 427 kts | 330° |
| 2026-04-21 20:16 | 45.01763 | 0.34446 | 33418 ft | 426 kts | 330° |
| 2026-04-21 20:16 | 45.04418 | 0.32608 | 33763 ft | 425 kts | 330° |
| 2026-04-21 20:17 | 45.07073 | 0.30763 | 34064 ft | 424 kts | 330° |
| 2026-04-21 20:17 | 45.09718 | 0.28919 | 34331 ft | 423 kts | 330° |
| 2026-04-21 20:17 | 45.12359 | 0.27072 | 34587 ft | 423 kts | 330° |
| 2026-04-21 20:17 | 45.14966 | 0.25246 | 34817 ft | 423 kts | 330° |
| 2026-04-21 20:18 | 45.16749 | 0.23999 | 34969 ft | 424 kts | 330° |
| 2026-04-21 20:18 | 45.20286 | 0.21534 | 35284 ft | 424 kts | 330° |
| 2026-04-21 20:18 | 45.22904 | 0.19716 | 35484 ft | 425 kts | 330° |
| 2026-04-21 20:18 | 45.25557 | 0.17869 | 35683 ft | 425 kts | 330° |
| 2026-04-21 20:19 | 45.28203 | 0.16017 | 35861 ft | 425 kts | 330° |
| 2026-04-21 20:19 | 45.33494 | 0.12293 | 35898 ft | 424 kts | 329° |
| 2026-04-21 20:20 | 45.38774 | 0.08571 | 35908 ft | 423 kts | 329° |
| 2026-04-21 20:20 | 45.44062 | 0.04852 | 35903 ft | 424 kts | 330° |
| 2026-04-21 20:21 | 45.49359 | 0.01133 | 35912 ft | 424 kts | 329° |
| 2026-04-21 20:21 | 45.54643 | -0.02602 | 35926 ft | 424 kts | 329° |
| 2026-04-21 20:22 | 45.59928 | -0.06360 | 35938 ft | 424 kts | 329° |
| 2026-04-21 20:22 | 45.66959 | -0.11373 | 35942 ft | 425 kts | 329° |
| 2026-04-21 20:23 | 45.73111 | -0.15752 | 35928 ft | 425 kts | 329° |
| 2026-04-21 20:23 | 45.77542 | -0.18918 | 35940 ft | 425 kts | 329° |
| 2026-04-21 20:24 | 45.82793 | -0.22677 | 35934 ft | 425 kts | 329° |
| 2026-04-21 20:24 | 45.88081 | -0.26465 | 35941 ft | 425 kts | 329° |
| 2026-04-21 20:25 | 45.93367 | -0.30260 | 35945 ft | 425 kts | 329° |
| 2026-04-21 20:25 | 45.98645 | -0.34071 | 35956 ft | 425 kts | 329° |
| 2026-04-21 20:26 | 46.03927 | -0.37887 | 35964 ft | 424 kts | 329° |
| 2026-04-21 20:26 | 46.09198 | -0.41697 | 35968 ft | 424 kts | 329° |
| 2026-04-21 20:27 | 46.14471 | -0.45518 | 35961 ft | 424 kts | 329° |
| 2026-04-21 20:27 | 46.19744 | -0.49349 | 35976 ft | 423 kts | 329° |
| 2026-04-21 20:28 | 46.25001 | -0.53179 | 35987 ft | 423 kts | 329° |
| 2026-04-21 20:28 | 46.30255 | -0.57012 | 35979 ft | 423 kts | 329° |
| 2026-04-21 20:29 | 46.35500 | -0.60840 | 35992 ft | 422 kts | 329° |
| 2026-04-21 20:29 | 46.40745 | -0.64688 | 35999 ft | 422 kts | 329° |
| 2026-04-21 20:30 | 46.45989 | -0.68531 | 35992 ft | 422 kts | 329° |
| 2026-04-21 20:30 | 46.51195 | -0.72324 | 35997 ft | 422 kts | 329° |
| 2026-04-21 20:31 | 46.56429 | -0.76149 | 36001 ft | 421 kts | 329° |
| 2026-04-21 20:31 | 46.61667 | -0.79979 | 36007 ft | 420 kts | 329° |
| 2026-04-21 20:32 | 46.66890 | -0.83814 | 35995 ft | 421 kts | 329° |
| 2026-04-21 20:32 | 46.72118 | -0.87666 | 35991 ft | 421 kts | 329° |
| 2026-04-21 20:33 | 46.77349 | -0.91529 | 36000 ft | 422 kts | 329° |
| 2026-04-21 20:33 | 46.82590 | -0.95398 | 36004 ft | 422 kts | 329° |
| 2026-04-21 20:34 | 46.87822 | -0.99273 | 36007 ft | 422 kts | 329° |
| 2026-04-21 20:34 | 46.93102 | -1.02943 | 36007 ft | 426 kts | 337° |
| 2026-04-21 20:35 | 46.99004 | -1.04577 | 36022 ft | 433 kts | 351° |
| 2026-04-21 20:35 | 47.04976 | -1.05370 | 36019 ft | 433 kts | 350° |
| 2026-04-21 20:36 | 47.10979 | -1.06182 | 36019 ft | 433 kts | 350° |
| 2026-04-21 20:36 | 47.16985 | -1.07002 | 36025 ft | 433 kts | 350° |
| 2026-04-21 20:37 | 47.22993 | -1.07826 | 36038 ft | 433 kts | 350° |
| 2026-04-21 20:37 | 47.28999 | -1.08652 | 36038 ft | 433 kts | 350° |
| 2026-04-21 20:38 | 47.35006 | -1.09476 | 36040 ft | 433 kts | 350° |
| 2026-04-21 20:38 | 47.41011 | -1.10298 | 36057 ft | 433 kts | 350° |
| 2026-04-21 20:39 | 47.46961 | -1.11121 | 36061 ft | 432 kts | 350° |
| 2026-04-21 20:39 | 47.52947 | -1.11951 | 36058 ft | 432 kts | 350° |
| 2026-04-21 20:40 | 47.58930 | -1.12778 | 36072 ft | 432 kts | 350° |
| 2026-04-21 20:40 | 47.64906 | -1.13608 | 36077 ft | 431 kts | 350° |
| 2026-04-21 20:41 | 47.70872 | -1.14436 | 36074 ft | 430 kts | 350° |
| 2026-04-21 20:41 | 47.76832 | -1.15262 | 36079 ft | 430 kts | 350° |
| 2026-04-21 20:42 | 47.82789 | -1.16087 | 36095 ft | 430 kts | 350° |
| 2026-04-21 20:42 | 47.88741 | -1.16926 | 36098 ft | 429 kts | 350° |
| 2026-04-21 20:43 | 47.94692 | -1.17771 | 36089 ft | 429 kts | 350° |
| 2026-04-21 20:43 | 48.00604 | -1.18608 | 36092 ft | 430 kts | 350° |
| 2026-04-21 20:44 | 48.06555 | -1.19446 | 36103 ft | 429 kts | 350° |
| 2026-04-21 20:44 | 48.12503 | -1.20280 | 36099 ft | 429 kts | 350° |
| 2026-04-21 20:45 | 48.18449 | -1.21123 | 36100 ft | 429 kts | 350° |
| 2026-04-21 20:45 | 48.24392 | -1.21960 | 36119 ft | 429 kts | 350° |
| 2026-04-21 20:46 | 48.30327 | -1.22809 | 36120 ft | 428 kts | 350° |
| 2026-04-21 20:46 | 48.36259 | -1.23667 | 36118 ft | 428 kts | 350° |
| 2026-04-21 20:47 | 48.42143 | -1.24509 | 36121 ft | 427 kts | 350° |
| 2026-04-21 20:47 | 48.48064 | -1.25346 | 36134 ft | 427 kts | 350° |
| 2026-04-21 20:48 | 48.53978 | -1.26202 | 36129 ft | 427 kts | 350° |
| 2026-04-21 20:48 | 48.59883 | -1.27060 | 36134 ft | 427 kts | 350° |
| 2026-04-21 20:49 | 48.65796 | -1.27918 | 36149 ft | 426 kts | 350° |
| 2026-04-21 20:49 | 48.71702 | -1.28771 | 36145 ft | 426 kts | 350° |
| 2026-04-21 20:50 | 48.77604 | -1.29621 | 36145 ft | 426 kts | 350° |
| 2026-04-21 20:50 | 48.83502 | -1.30480 | 36152 ft | 426 kts | 350° |
| 2026-04-21 20:51 | 48.89399 | -1.31342 | 36141 ft | 426 kts | 350° |
| 2026-04-21 20:51 | 48.95302 | -1.32207 | 36127 ft | 427 kts | 350° |
| 2026-04-21 20:52 | 49.01219 | -1.33075 | 36133 ft | 428 kts | 350° |
| 2026-04-21 20:52 | 49.07146 | -1.33940 | 36144 ft | 428 kts | 350° |
| 2026-04-21 20:53 | 49.13075 | -1.34807 | 36163 ft | 428 kts | 350° |
| 2026-04-21 20:53 | 49.18996 | -1.35680 | 36170 ft | 427 kts | 350° |
| 2026-04-21 20:54 | 49.24906 | -1.36559 | 36167 ft | 427 kts | 350° |
| 2026-04-21 20:54 | 49.30819 | -1.37442 | 36186 ft | 427 kts | 350° |
| 2026-04-21 20:55 | 49.36686 | -1.38317 | 36193 ft | 426 kts | 350° |
| 2026-04-21 20:55 | 49.42584 | -1.39190 | 36197 ft | 425 kts | 350° |
| 2026-04-21 20:56 | 49.48490 | -1.40064 | 36202 ft | 425 kts | 350° |
| 2026-04-21 20:56 | 49.54379 | -1.40941 | 36216 ft | 425 kts | 350° |
| 2026-04-21 20:57 | 49.60282 | -1.41574 | 36205 ft | 429 kts | 358° |
| 2026-04-21 20:57 | 49.66246 | -1.41058 | 36208 ft | 429 kts | 359° |
| 2026-04-21 20:58 | 49.72211 | -1.40522 | 36205 ft | 429 kts | 359° |
| 2026-04-21 20:58 | 49.78133 | -1.39991 | 36212 ft | 429 kts | 358° |
| 2026-04-21 20:59 | 49.84094 | -1.39455 | 36214 ft | 429 kts | 358° |
| 2026-04-21 20:59 | 49.90054 | -1.38925 | 36218 ft | 429 kts | 358° |
| 2026-04-21 21:00 | 49.96013 | -1.38391 | 36222 ft | 429 kts | 359° |
| 2026-04-21 21:00 | 50.01968 | -1.37568 | 36235 ft | 432 kts | 4° |
| 2026-04-21 21:01 | 50.07907 | -1.36093 | 36251 ft | 432 kts | 4° |
| 2026-04-21 21:01 | 50.13837 | -1.34603 | 36243 ft | 432 kts | 4° |
| 2026-04-21 21:02 | 50.19773 | -1.33115 | 36255 ft | 431 kts | 4° |
| 2026-04-21 21:02 | 50.25698 | -1.31633 | 36251 ft | 431 kts | 4° |
| 2026-04-21 21:03 | 50.31620 | -1.30160 | 36242 ft | 431 kts | 4° |
| 2026-04-21 21:03 | 50.37507 | -1.28689 | 36247 ft | 431 kts | 4° |
| 2026-04-21 21:04 | 50.43434 | -1.27197 | 36267 ft | 431 kts | 4° |
| 2026-04-21 21:04 | 50.49367 | -1.25802 | 36264 ft | 428 kts | 359° |
| 2026-04-21 21:05 | 50.55234 | -1.26242 | 36263 ft | 421 kts | 349° |
| 2026-04-21 21:05 | 50.61061 | -1.27161 | 36267 ft | 421 kts | 350° |
| 2026-04-21 21:06 | 50.66891 | -1.28052 | 36293 ft | 421 kts | 350° |
| 2026-04-21 21:06 | 50.72716 | -1.28940 | 36301 ft | 420 kts | 350° |
| 2026-04-21 21:07 | 50.78535 | -1.29841 | 36308 ft | 420 kts | 350° |
| 2026-04-21 21:07 | 50.84353 | -1.30756 | 36312 ft | 420 kts | 350° |
| 2026-04-21 21:08 | 50.90163 | -1.31668 | 36325 ft | 420 kts | 350° |
| 2026-04-21 21:08 | 50.95973 | -1.32580 | 36321 ft | 419 kts | 350° |
| 2026-04-21 21:09 | 51.01740 | -1.33486 | 36311 ft | 419 kts | 350° |
| 2026-04-21 21:09 | 51.07541 | -1.34400 | 36309 ft | 419 kts | 350° |
| 2026-04-21 21:10 | 51.13329 | -1.35312 | 36305 ft | 418 kts | 350° |
| 2026-04-21 21:10 | 51.19123 | -1.36227 | 36304 ft | 418 kts | 350° |
| 2026-04-21 21:11 | 51.24907 | -1.37150 | 36298 ft | 418 kts | 350° |
| 2026-04-21 21:11 | 51.30694 | -1.38068 | 36292 ft | 418 kts | 350° |
| 2026-04-21 21:12 | 51.36477 | -1.38975 | 36302 ft | 418 kts | 350° |
| 2026-04-21 21:12 | 51.42264 | -1.39890 | 36303 ft | 418 kts | 350° |
| 2026-04-21 21:13 | 51.48054 | -1.40831 | 36308 ft | 418 kts | 350° |
| 2026-04-21 21:13 | 51.52863 | -1.41606 | 36311 ft | 418 kts | 350° |
| 2026-04-21 21:14 | 51.58659 | -1.42538 | 36321 ft | 418 kts | 350° |
| 2026-04-21 21:14 | 51.64446 | -1.43473 | 36323 ft | 418 kts | 350° |
| 2026-04-21 21:15 | 51.70242 | -1.44419 | 36325 ft | 419 kts | 350° |
| 2026-04-21 21:15 | 51.76042 | -1.45361 | 36325 ft | 419 kts | 350° |
| 2026-04-21 21:16 | 51.81839 | -1.46306 | 36327 ft | 419 kts | 351° |
| 2026-04-21 21:16 | 51.87654 | -1.47247 | 36317 ft | 420 kts | 351° |
| 2026-04-21 21:17 | 51.93486 | -1.48203 | 36313 ft | 420 kts | 350° |
| 2026-04-21 21:17 | 51.99309 | -1.49160 | 36316 ft | 421 kts | 350° |
| 2026-04-21 21:18 | 52.05097 | -1.50115 | 36386 ft | 421 kts | 351° |
| 2026-04-21 21:18 | 52.10929 | -1.51067 | 36393 ft | 421 kts | 351° |
| 2026-04-21 21:19 | 52.16804 | -1.52035 | 36401 ft | 421 kts | 351° |
| 2026-04-21 21:19 | 52.22605 | -1.52992 | 36399 ft | 422 kts | 351° |
| 2026-04-21 21:20 | 52.28439 | -1.53967 | 36410 ft | 422 kts | 351° |
| 2026-04-21 21:20 | 52.34284 | -1.54945 | 36379 ft | 421 kts | 351° |
| 2026-04-21 21:21 | 52.40116 | -1.55915 | 36379 ft | 421 kts | 351° |
| 2026-04-21 21:21 | 52.45920 | -1.56891 | 36381 ft | 421 kts | 351° |
| 2026-04-21 21:22 | 52.51770 | -1.57877 | 36403 ft | 424 kts | 351° |
| 2026-04-21 21:22 | 52.57632 | -1.58874 | 36282 ft | 422 kts | 351° |
| 2026-04-21 21:23 | 52.63480 | -1.59855 | 36279 ft | 422 kts | 351° |
| 2026-04-21 21:23 | 52.69315 | -1.60835 | 36287 ft | 421 kts | 351° |
| 2026-04-21 21:24 | 52.75134 | -1.61821 | 36409 ft | 421 kts | 351° |
| 2026-04-21 21:24 | 52.80969 | -1.62810 | 36414 ft | 421 kts | 351° |
| 2026-04-21 21:25 | 52.86795 | -1.63800 | 36408 ft | 421 kts | 351° |
| 2026-04-21 21:25 | 52.92628 | -1.64800 | 36402 ft | 421 kts | 351° |
| 2026-04-21 21:26 | 52.98457 | -1.65811 | 36400 ft | 421 kts | 351° |
| 2026-04-21 21:26 | 53.04257 | -1.66872 | 36392 ft | 421 kts | 347° |
| 2026-04-21 21:27 | 53.09808 | -1.69708 | 36391 ft | 418 kts | 337° |
| 2026-04-21 21:27 | 53.15262 | -1.73095 | 36397 ft | 419 kts | 337° |
| 2026-04-21 21:28 | 53.20719 | -1.76494 | 36397 ft | 419 kts | 337° |
| 2026-04-21 21:29 | 53.28934 | -1.81615 | 36412 ft | 420 kts | 338° |
| 2026-04-21 21:29 | 53.34425 | -1.85045 | 36401 ft | 422 kts | 338° |
| 2026-04-21 21:30 | 53.39926 | -1.88495 | 36397 ft | 422 kts | 338° |
| 2026-04-21 21:30 | 53.45432 | -1.91955 | 36411 ft | 423 kts | 338° |
| 2026-04-21 21:31 | 53.50916 | -1.95414 | 36410 ft | 423 kts | 338° |
| 2026-04-21 21:31 | 53.56419 | -1.98900 | 36427 ft | 423 kts | 338° |
| 2026-04-21 21:32 | 53.61926 | -2.02397 | 36424 ft | 423 kts | 338° |
| 2026-04-21 21:32 | 53.67434 | -2.05904 | 36419 ft | 423 kts | 338° |
| 2026-04-21 21:33 | 53.72938 | -2.09421 | 36417 ft | 423 kts | 337° |
| 2026-04-21 21:33 | 53.79243 | -2.13548 | 36410 ft | 423 kts | 336° |
| 2026-04-21 21:34 | 53.95923 | -2.25052 | 36434 ft | 424 kts | 336° |
| 2026-04-21 21:34 | 54.01397 | -2.28816 | 36434 ft | 425 kts | 336° |
| 2026-04-21 21:35 | 54.06847 | -2.32575 | 36425 ft | 426 kts | 336° |
| 2026-04-21 21:35 | 54.12338 | -2.36373 | 36441 ft | 426 kts | 336° |
| 2026-04-21 21:36 | 54.17840 | -2.40183 | 36433 ft | 426 kts | 336° |
| 2026-04-21 21:36 | 54.23338 | -2.44022 | 36453 ft | 426 kts | 336° |
| 2026-04-21 21:37 | 54.28828 | -2.47864 | 36460 ft | 426 kts | 336° |
| 2026-04-21 21:37 | 54.34324 | -2.51697 | 36455 ft | 427 kts | 336° |
| 2026-04-21 21:37 | 54.37049 | -2.53603 | 36224 ft | 428 kts | 337° |
| 2026-04-21 21:38 | 54.39800 | -2.55536 | 35969 ft | 427 kts | 336° |
| 2026-04-21 21:38 | 54.42542 | -2.57463 | 35730 ft | 426 kts | 336° |
| 2026-04-21 21:38 | 54.45285 | -2.59395 | 35477 ft | 426 kts | 336° |
| 2026-04-21 21:38 | 54.48042 | -2.61343 | 34720 ft | 431 kts | 336° |
| 2026-04-21 21:39 | 54.50830 | -2.63315 | 33799 ft | 435 kts | 336° |
| 2026-04-21 21:39 | 54.53612 | -2.65282 | 33311 ft | 428 kts | 336° |
| 2026-04-21 21:39 | 54.56355 | -2.67216 | 32747 ft | 424 kts | 336° |
| 2026-04-21 21:39 | 54.59065 | -2.69135 | 32193 ft | 419 kts | 335° |
| 2026-04-21 21:40 | 54.61739 | -2.71038 | 31650 ft | 413 kts | 334° |
| 2026-04-21 21:40 | 54.64375 | -2.72919 | 31131 ft | 407 kts | 334° |
| 2026-04-21 21:40 | 54.66974 | -2.74778 | 30596 ft | 401 kts | 334° |
| 2026-04-21 21:40 | 54.69509 | -2.76592 | 30037 ft | 396 kts | 334° |
| 2026-04-21 21:41 | 54.72038 | -2.78398 | 29529 ft | 389 kts | 334° |
| 2026-04-21 21:41 | 54.74528 | -2.80179 | 29029 ft | 385 kts | 336° |
| 2026-04-21 21:41 | 54.76987 | -2.81941 | 28532 ft | 380 kts | 336° |
| 2026-04-21 21:41 | 54.79418 | -2.83686 | 28055 ft | 376 kts | 336° |
| 2026-04-21 21:42 | 54.81825 | -2.85414 | 27583 ft | 372 kts | 336° |
| 2026-04-21 21:42 | 54.84205 | -2.87126 | 27127 ft | 368 kts | 336° |
| 2026-04-21 21:42 | 54.86556 | -2.88818 | 26682 ft | 365 kts | 336° |
| 2026-04-21 21:42 | 54.88897 | -2.90504 | 26213 ft | 364 kts | 336° |
| 2026-04-21 21:43 | 54.91279 | -2.92225 | 25682 ft | 377 kts | 336° |
| 2026-04-21 21:43 | 54.93717 | -2.93990 | 25156 ft | 380 kts | 337° |
| 2026-04-21 21:43 | 54.96163 | -2.95764 | 24622 ft | 382 kts | 338° |
| 2026-04-21 21:43 | 54.98624 | -2.97550 | 24083 ft | 383 kts | 339° |
| 2026-04-21 21:44 | 55.01086 | -2.99334 | 23489 ft | 384 kts | 338° |
| 2026-04-21 21:44 | 55.03553 | -3.01122 | 22954 ft | 384 kts | 338° |
| 2026-04-21 21:44 | 55.06016 | -3.02915 | 22428 ft | 383 kts | 338° |
| 2026-04-21 21:44 | 55.08468 | -3.04704 | 21893 ft | 381 kts | 338° |
| 2026-04-21 21:45 | 55.10879 | -3.06471 | 21368 ft | 380 kts | 338° |
| 2026-04-21 21:45 | 55.13316 | -3.08260 | 20839 ft | 379 kts | 338° |
| 2026-04-21 21:45 | 55.15753 | -3.10050 | 20266 ft | 379 kts | 338° |
| 2026-04-21 21:45 | 55.18216 | -3.11856 | 19369 ft | 390 kts | 338° |
| 2026-04-21 21:46 | 55.20746 | -3.13708 | 18705 ft | 393 kts | 338° |
| 2026-04-21 21:46 | 55.23244 | -3.15542 | 18226 ft | 388 kts | 339° |
| 2026-04-21 21:46 | 55.25728 | -3.17369 | 17780 ft | 383 kts | 339° |
| 2026-04-21 21:46 | 55.28124 | -3.19083 | 17636 ft | 359 kts | 343° |
| 2026-04-21 21:47 | 55.30468 | -3.20000 | 17418 ft | 336 kts | 356° |
| 2026-04-21 21:47 | 55.32752 | -3.20013 | 16919 ft | 323 kts | 8° |
| 2026-04-21 21:47 | 55.34978 | -3.19658 | 16310 ft | 319 kts | 8° |
| 2026-04-21 21:47 | 55.37176 | -3.19307 | 15736 ft | 315 kts | 9° |
| 2026-04-21 21:48 | 55.39347 | -3.18961 | 15169 ft | 311 kts | 8° |
| 2026-04-21 21:48 | 55.41492 | -3.18624 | 14611 ft | 308 kts | 8° |
| 2026-04-21 21:48 | 55.43611 | -3.18295 | 14041 ft | 304 kts | 8° |
| 2026-04-21 21:48 | 55.45695 | -3.17970 | 13591 ft | 303 kts | 8° |
| 2026-04-21 21:49 | 55.47792 | -3.17643 | 13515 ft | 302 kts | 8° |
| 2026-04-21 21:49 | 55.49889 | -3.17314 | 13520 ft | 303 kts | 8° |
| 2026-04-21 21:49 | 55.51987 | -3.16984 | 13525 ft | 303 kts | 8° |
| 2026-04-21 21:49 | 55.54080 | -3.16651 | 13474 ft | 301 kts | 8° |
| 2026-04-21 21:50 | 55.56166 | -3.16321 | 13120 ft | 300 kts | 8° |
| 2026-04-21 21:50 | 55.58239 | -3.15997 | 12780 ft | 298 kts | 8° |
| 2026-04-21 21:50 | 55.60301 | -3.15675 | 12539 ft | 297 kts | 8° |
| 2026-04-21 21:50 | 55.62359 | -3.15349 | 12525 ft | 297 kts | 8° |
| 2026-04-21 21:51 | 55.64409 | -3.15022 | 12365 ft | 295 kts | 8° |
| 2026-04-21 21:51 | 55.66450 | -3.14698 | 11895 ft | 292 kts | 8° |
| 2026-04-21 21:51 | 55.68434 | -3.14387 | 11690 ft | 277 kts | 8° |
| 2026-04-21 21:51 | 55.70330 | -3.14094 | 11300 ft | 270 kts | 9° |
| 2026-04-21 21:52 | 55.72201 | -3.13796 | 10990 ft | 269 kts | 8° |
| 2026-04-21 21:52 | 55.74121 | -3.14055 | 10349 ft | 288 kts | 345° |
| 2026-04-21 21:52 | 55.75932 | -3.15690 | 9847 ft | 295 kts | 331° |
| 2026-04-21 21:52 | 55.77665 | -3.17672 | 9436 ft | 295 kts | 330° |
| 2026-04-21 21:53 | 55.79346 | -3.19642 | 9076 ft | 293 kts | 329° |
| 2026-04-21 21:53 | 55.81043 | -3.21643 | 8704 ft | 291 kts | 329° |
| 2026-04-21 21:53 | 55.82498 | -3.24106 | 8526 ft | 287 kts | 304° |
| 2026-04-21 21:53 | 55.83155 | -3.27336 | 8532 ft | 274 kts | 275° |
| 2026-04-21 21:54 | 55.82922 | -3.30608 | 8347 ft | 264 kts | 245° |
| 2026-04-21 21:54 | 55.82005 | -3.33381 | 8036 ft | 259 kts | 231° |
| 2026-04-21 21:54 | 55.80943 | -3.35965 | 7697 ft | 258 kts | 230° |
| 2026-04-21 21:54 | 55.79866 | -3.38512 | 7383 ft | 257 kts | 230° |
| 2026-04-21 21:55 | 55.78791 | -3.41035 | 7064 ft | 256 kts | 230° |
| 2026-04-21 21:55 | 55.77719 | -3.43540 | 6734 ft | 255 kts | 230° |
| 2026-04-21 21:55 | 55.76646 | -3.46044 | 6379 ft | 254 kts | 230° |
| 2026-04-21 21:55 | 55.75578 | -3.48535 | 6048 ft | 253 kts | 229° |
| 2026-04-21 21:56 | 55.74539 | -3.51051 | 5707 ft | 253 kts | 238° |
| 2026-04-21 21:56 | 55.74066 | -3.54037 | 5369 ft | 254 kts | 271° |
| 2026-04-21 21:56 | 55.74503 | -3.56990 | 5131 ft | 244 kts | 305° |
| 2026-04-21 21:56 | 55.75610 | -3.59073 | 5010 ft | 230 kts | 326° |
| 2026-04-21 21:57 | 55.76871 | -3.60757 | 4875 ft | 222 kts | 329° |
| 2026-04-21 21:57 | 55.78090 | -3.62323 | 4731 ft | 210 kts | 329° |
| 2026-04-21 21:57 | 55.79244 | -3.63819 | 4549 ft | 202 kts | 329° |
| 2026-04-21 21:57 | 55.80367 | -3.65290 | 4260 ft | 200 kts | 329° |
| 2026-04-21 21:58 | 55.81480 | -3.66767 | 3939 ft | 199 kts | 329° |
| 2026-04-21 21:58 | 55.82587 | -3.68218 | 3639 ft | 195 kts | 335° |
| 2026-04-21 21:58 | 55.83814 | -3.68836 | 3357 ft | 176 kts | 15° |
| 2026-04-21 21:58 | 55.84749 | -3.67783 | 3193 ft | 157 kts | 64° |
| 2026-04-21 21:59 | 55.85146 | -3.65978 | 3061 ft | 159 kts | 64° |
| 2026-04-21 21:59 | 55.85743 | -3.64308 | 3006 ft | 160 kts | 60° |
| 2026-04-21 21:59 | 55.86330 | -3.62636 | 3008 ft | 160 kts | 61° |
| 2026-04-21 21:59 | 55.86887 | -3.61030 | 2984 ft | 147 kts | 61° |
| 2026-04-21 22:00 | 55.87419 | -3.59482 | 2872 ft | 143 kts | 61° |
| 2026-04-21 22:00 | 55.87927 | -3.58001 | 2698 ft | 141 kts | 61° |
| 2026-04-21 22:00 | 55.88435 | -3.56516 | 2524 ft | 139 kts | 61° |
| 2026-04-21 22:00 | 55.88930 | -3.55068 | 2361 ft | 136 kts | 61° |
| 2026-04-21 22:01 | 55.89425 | -3.53621 | 2158 ft | 138 kts | 61° |
| 2026-04-21 22:01 | 55.89918 | -3.52176 | 1958 ft | 136 kts | 61° |
| 2026-04-21 22:01 | 55.90413 | -3.50728 | 1768 ft | 137 kts | 61° |
| 2026-04-21 22:01 | 55.90908 | -3.49277 | 1558 ft | 137 kts | 60° |
| 2026-04-21 22:02 | 55.91395 | -3.47846 | 1361 ft | 131 kts | 60° |
| 2026-04-21 22:02 | 55.91859 | -3.46481 | 1163 ft | 126 kts | 60° |
| 2026-04-21 22:02 | 55.92317 | -3.45159 | 1016 ft | 125 kts | 59° |
| 2026-04-21 22:02 | 55.92770 | -3.43831 | 847 ft | 124 kts | 61° |
| 2026-04-21 22:03 | 55.93216 | -3.42483 | 670 ft | 127 kts | 59° |
| 2026-04-21 22:03 | 55.93667 | -3.41166 | 469 ft | 125 kts | 58° |
| 2026-04-21 22:03 | 55.94114 | -3.39841 | 302 ft | 125 kts | 59° |
| 2026-04-21 22:03 | 55.94420 | -3.38958 | 180 ft | 124 kts | 59° |
| 2026-04-21 22:04 | 55.94969 | -3.37349 | 109 ft | 99 kts | 59° |
| 2026-04-21 22:04 | 55.95243 | -3.36533 | 112 ft | 52 kts | 59° |
| 2026-04-21 22:04 | 55.95380 | -3.36128 | 109 ft | 33 kts | 58° |
| 2026-04-21 22:04 | 55.95454 | -3.35910 | 110 ft | 29 kts | 59° |
| 2026-04-21 22:05 | 55.95541 | -3.35648 | 113 ft | 22 kts | 59° |
| 2026-04-21 22:05 | 55.95545 | -3.35491 | 113 ft | 13 kts | 144° |
| 2026-04-21 22:05 | 55.95485 | -3.35425 | 113 ft | 2 kts | 149° |
| 2026-04-21 22:05 | 55.95481 | -3.35421 | 113 ft | 0 kts | 149° |
| 2026-04-21 22:07 | 55.95466 | -3.35405 | 112 ft | 10 kts | 149° |
| 2026-04-21 22:07 | 55.95420 | -3.35442 | 113 ft | 7 kts | 226° |
| 2026-04-21 22:07 | 55.95397 | -3.35504 | 113 ft | 5 kts | 239° |
| 2026-04-21 22:08 | 55.95375 | -3.35570 | 113 ft | 9 kts | 239° |
| 2026-04-21 22:08 | 55.95339 | -3.35680 | 113 ft | 10 kts | 240° |
| 2026-04-21 22:08 | 55.95303 | -3.35781 | 115 ft | 9 kts | 237° |
| 2026-04-21 22:08 | 55.95273 | -3.35869 | 113 ft | 8 kts | 238° |
| 2026-04-21 22:09 | 55.95245 | -3.35950 | 116 ft | 9 kts | 239° |
| 2026-04-21 22:09 | 55.95205 | -3.36074 | 114 ft | 12 kts | 240° |
| 2026-04-21 22:09 | 55.95164 | -3.36190 | 114 ft | 11 kts | 237° |
| 2026-04-21 22:09 | 55.95128 | -3.36295 | 114 ft | 9 kts | 239° |
| 2026-04-21 22:10 | 55.95097 | -3.36390 | 114 ft | 8 kts | 237° |
| 2026-04-21 22:10 | 55.95052 | -3.36389 | 113 ft | 6 kts | 153° |
| 2026-04-21 22:10 | 55.95022 | -3.36349 | 112 ft | 5 kts | 146° |
| 2026-04-21 22:10 | 55.94996 | -3.36320 | 113 ft | 4 kts | 148° |
| 2026-04-21 22:11 | 55.94976 | -3.36298 | 114 ft | 3 kts | 148° |
| 2026-04-21 22:11 | 55.94962 | -3.36283 | 114 ft | 2 kts | 149° |
| 2026-04-21 22:11 | 55.94960 | -3.36281 | 114 ft | 0 kts | 149° |